sensor_id;sensor_type;location;lat;lon;timestamp;P1;durP1;ratioP1;P2;durP2;ratioP2
22270;SDS011;11304;53.520;10.104;2024-03-02T00:02:24;27.23;;;17.92;;
22270;SDS011;11304;53.520;10.104;2024-03-02T00:04:50;29.85;;;17.60;;
22270;SDS011;11304;53.520;10.104;2024-03-02T00:07:16;27.27;;;17.52;;
22270;SDS011;11304;53.520;10.104;2024-03-02T00:09:42;27.73;;;17.35;;
22270;SDS011;11304;53.520;10.104;2024-03-02T00:12:10;27.52;;;17.20;;
22270;SDS011;11304;53.520;10.104;2024-03-02T00:17:03;28.80;;;16.63;;
22270;SDS011;11304;53.520;10.104;2024-03-02T00:19:29;28.02;;;17.92;;
22270;SDS011;11304;53.520;10.104;2024-03-02T00:21:55;26.17;;;17.52;;
22270;SDS011;11304;53.520;10.104;2024-03-02T00:24:26;30.25;;;19.40;;
22270;SDS011;11304;53.520;10.104;2024-03-02T00:26:56;33.95;;;21.80;;
22270;SDS011;11304;53.520;10.104;2024-03-02T00:29:22;35.63;;;21.27;;
22270;SDS011;11304;53.520;10.104;2024-03-02T00:31:49;36.90;;;22.27;;
22270;SDS011;11304;53.520;10.104;2024-03-02T00:34:15;39.67;;;24.40;;
22270;SDS011;11304;53.520;10.104;2024-03-02T00:36:43;37.40;;;23.90;;
22270;SDS011;11304;53.520;10.104;2024-03-02T00:39:11;39.63;;;24.70;;
22270;SDS011;11304;53.520;10.104;2024-03-02T00:41:38;43.95;;;25.80;;
22270;SDS011;11304;53.520;10.104;2024-03-02T00:44:07;40.97;;;26.10;;
22270;SDS011;11304;53.520;10.104;2024-03-02T00:46:36;41.65;;;26.17;;
22270;SDS011;11304;53.520;10.104;2024-03-02T00:49:10;43.92;;;26.73;;
22270;SDS011;11304;53.520;10.104;2024-03-02T00:51:37;42.33;;;26.58;;
22270;SDS011;11304;53.520;10.104;2024-03-02T00:54:05;41.50;;;26.92;;
22270;SDS011;11304;53.520;10.104;2024-03-02T00:56:32;42.40;;;26.23;;
22270;SDS011;11304;53.520;10.104;2024-03-02T00:58:59;40.38;;;25.88;;
22270;SDS011;11304;53.520;10.104;2024-03-02T01:01:25;42.13;;;26.45;;
22270;SDS011;11304;53.520;10.104;2024-03-02T01:03:52;49.33;;;28.08;;
22270;SDS011;11304;53.520;10.104;2024-03-02T01:06:18;46.88;;;27.65;;
22270;SDS011;11304;53.520;10.104;2024-03-02T01:08:44;45.13;;;27.50;;
22270;SDS011;11304;53.520;10.104;2024-03-02T01:11:12;42.83;;;26.85;;
22270;SDS011;11304;53.520;10.104;2024-03-02T01:13:38;46.95;;;29.30;;
22270;SDS011;11304;53.520;10.104;2024-03-02T01:16:04;48.17;;;28.90;;
22270;SDS011;11304;53.520;10.104;2024-03-02T01:18:30;48.55;;;29.05;;
22270;SDS011;11304;53.520;10.104;2024-03-02T01:20:56;48.90;;;29.35;;
22270;SDS011;11304;53.520;10.104;2024-03-02T01:23:23;45.92;;;30.02;;
22270;SDS011;11304;53.520;10.104;2024-03-02T01:25:49;52.55;;;30.85;;
22270;SDS011;11304;53.520;10.104;2024-03-02T01:28:15;49.30;;;29.55;;
22270;SDS011;11304;53.520;10.104;2024-03-02T01:30:42;42.38;;;28.08;;
22270;SDS011;11304;53.520;10.104;2024-03-02T01:33:08;50.15;;;29.90;;
22270;SDS011;11304;53.520;10.104;2024-03-02T01:35:34;50.50;;;29.20;;
22270;SDS011;11304;53.520;10.104;2024-03-02T01:38:00;48.20;;;29.50;;
22270;SDS011;11304;53.520;10.104;2024-03-02T01:40:27;47.50;;;28.40;;
22270;SDS011;11304;53.520;10.104;2024-03-02T01:42:53;48.55;;;30.73;;
22270;SDS011;11304;53.520;10.104;2024-03-02T01:45:20;48.75;;;29.58;;
22270;SDS011;11304;53.520;10.104;2024-03-02T01:47:46;53.22;;;29.88;;
22270;SDS011;11304;53.520;10.104;2024-03-02T01:50:12;47.70;;;29.23;;
22270;SDS011;11304;53.520;10.104;2024-03-02T01:52:38;50.20;;;30.60;;
22270;SDS011;11304;53.520;10.104;2024-03-02T01:55:05;49.90;;;29.38;;
22270;SDS011;11304;53.520;10.104;2024-03-02T01:57:32;50.55;;;30.60;;
22270;SDS011;11304;53.520;10.104;2024-03-02T01:59:58;45.25;;;28.20;;
22270;SDS011;11304;53.520;10.104;2024-03-02T02:02:25;48.17;;;29.98;;
22270;SDS011;11304;53.520;10.104;2024-03-02T02:04:51;45.50;;;29.25;;
22270;SDS011;11304;53.520;10.104;2024-03-02T02:07:17;50.25;;;29.88;;
22270;SDS011;11304;53.520;10.104;2024-03-02T02:09:43;48.72;;;30.10;;
22270;SDS011;11304;53.520;10.104;2024-03-02T02:12:10;47.65;;;30.20;;
22270;SDS011;11304;53.520;10.104;2024-03-02T02:14:36;47.03;;;29.77;;
22270;SDS011;11304;53.520;10.104;2024-03-02T02:17:02;45.55;;;29.70;;
22270;SDS011;11304;53.520;10.104;2024-03-02T02:19:28;53.03;;;30.73;;
22270;SDS011;11304;53.520;10.104;2024-03-02T02:21:55;50.45;;;31.33;;
22270;SDS011;11304;53.520;10.104;2024-03-02T02:24:21;49.25;;;30.67;;
22270;SDS011;11304;53.520;10.104;2024-03-02T02:26:47;52.85;;;31.48;;
22270;SDS011;11304;53.520;10.104;2024-03-02T02:29:13;48.38;;;29.63;;
22270;SDS011;11304;53.520;10.104;2024-03-02T02:31:39;50.30;;;30.42;;
22270;SDS011;11304;53.520;10.104;2024-03-02T02:34:05;47.90;;;30.67;;
22270;SDS011;11304;53.520;10.104;2024-03-02T02:36:32;48.60;;;29.65;;
22270;SDS011;11304;53.520;10.104;2024-03-02T02:38:59;50.25;;;28.92;;
22270;SDS011;11304;53.520;10.104;2024-03-02T02:41:28;48.40;;;29.23;;
22270;SDS011;11304;53.520;10.104;2024-03-02T02:43:54;46.70;;;29.08;;
22270;SDS011;11304;53.520;10.104;2024-03-02T02:46:20;51.92;;;30.40;;
22270;SDS011;11304;53.520;10.104;2024-03-02T02:48:46;48.90;;;30.10;;
22270;SDS011;11304;53.520;10.104;2024-03-02T02:51:13;51.90;;;30.85;;
22270;SDS011;11304;53.520;10.104;2024-03-02T02:53:39;52.00;;;29.73;;
22270;SDS011;11304;53.520;10.104;2024-03-02T02:56:08;46.45;;;29.45;;
22270;SDS011;11304;53.520;10.104;2024-03-02T02:58:34;45.63;;;28.63;;
22270;SDS011;11304;53.520;10.104;2024-03-02T03:01:00;46.38;;;27.98;;
22270;SDS011;11304;53.520;10.104;2024-03-02T03:03:26;47.00;;;28.83;;
22270;SDS011;11304;53.520;10.104;2024-03-02T03:05:52;52.33;;;31.25;;
22270;SDS011;11304;53.520;10.104;2024-03-02T03:08:18;49.95;;;29.98;;
22270;SDS011;11304;53.520;10.104;2024-03-02T03:10:44;48.38;;;30.45;;
22270;SDS011;11304;53.520;10.104;2024-03-02T03:13:10;51.67;;;31.13;;
22270;SDS011;11304;53.520;10.104;2024-03-02T03:15:37;49.00;;;30.70;;
22270;SDS011;11304;53.520;10.104;2024-03-02T03:18:03;45.63;;;28.20;;
22270;SDS011;11304;53.520;10.104;2024-03-02T03:20:30;46.42;;;29.88;;
22270;SDS011;11304;53.520;10.104;2024-03-02T03:22:56;46.95;;;29.75;;
22270;SDS011;11304;53.520;10.104;2024-03-02T03:25:22;49.45;;;30.70;;
22270;SDS011;11304;53.520;10.104;2024-03-02T03:27:49;51.70;;;29.40;;
22270;SDS011;11304;53.520;10.104;2024-03-02T03:30:16;38.10;;;23.60;;
22270;SDS011;11304;53.520;10.104;2024-03-02T03:32:43;46.72;;;29.10;;
22270;SDS011;11304;53.520;10.104;2024-03-02T03:35:09;48.97;;;29.13;;
22270;SDS011;11304;53.520;10.104;2024-03-02T03:37:35;47.60;;;29.38;;
22270;SDS011;11304;53.520;10.104;2024-03-02T03:40:02;46.60;;;29.13;;
22270;SDS011;11304;53.520;10.104;2024-03-02T03:42:32;48.80;;;28.77;;
22270;SDS011;11304;53.520;10.104;2024-03-02T03:44:58;46.75;;;29.45;;
22270;SDS011;11304;53.520;10.104;2024-03-02T03:47:24;49.17;;;29.17;;
22270;SDS011;11304;53.520;10.104;2024-03-02T03:49:50;47.03;;;30.02;;
22270;SDS011;11304;53.520;10.104;2024-03-02T03:52:16;49.67;;;30.35;;
22270;SDS011;11304;53.520;10.104;2024-03-02T03:54:42;49.60;;;29.15;;
22270;SDS011;11304;53.520;10.104;2024-03-02T03:57:09;43.38;;;27.35;;
22270;SDS011;11304;53.520;10.104;2024-03-02T03:59:35;49.35;;;28.38;;
22270;SDS011;11304;53.520;10.104;2024-03-02T04:02:04;45.70;;;27.50;;
22270;SDS011;11304;53.520;10.104;2024-03-02T04:04:30;54.85;;;29.00;;
22270;SDS011;11304;53.520;10.104;2024-03-02T04:06:56;44.42;;;27.30;;
22270;SDS011;11304;53.520;10.104;2024-03-02T04:09:22;46.20;;;28.63;;
22270;SDS011;11304;53.520;10.104;2024-03-02T04:11:48;45.15;;;28.58;;
22270;SDS011;11304;53.520;10.104;2024-03-02T04:14:14;46.33;;;27.95;;
22270;SDS011;11304;53.520;10.104;2024-03-02T04:16:40;44.50;;;28.65;;
22270;SDS011;11304;53.520;10.104;2024-03-02T04:19:06;48.42;;;29.00;;
22270;SDS011;11304;53.520;10.104;2024-03-02T04:21:32;42.38;;;27.98;;
22270;SDS011;11304;53.520;10.104;2024-03-02T04:23:58;48.38;;;27.30;;
22270;SDS011;11304;53.520;10.104;2024-03-02T04:26:25;48.05;;;28.17;;
22270;SDS011;11304;53.520;10.104;2024-03-02T04:28:51;46.15;;;28.90;;
22270;SDS011;11304;53.520;10.104;2024-03-02T04:31:17;44.35;;;27.63;;
22270;SDS011;11304;53.520;10.104;2024-03-02T04:33:43;41.58;;;26.85;;
22270;SDS011;11304;53.520;10.104;2024-03-02T04:36:09;45.63;;;27.70;;
22270;SDS011;11304;53.520;10.104;2024-03-02T04:38:36;46.70;;;27.15;;
22270;SDS011;11304;53.520;10.104;2024-03-02T04:41:02;43.85;;;26.38;;
22270;SDS011;11304;53.520;10.104;2024-03-02T04:43:28;42.47;;;27.10;;
22270;SDS011;11304;53.520;10.104;2024-03-02T04:45:54;44.50;;;27.08;;
22270;SDS011;11304;53.520;10.104;2024-03-02T04:48:20;47.90;;;27.33;;
22270;SDS011;11304;53.520;10.104;2024-03-02T04:50:47;44.78;;;25.95;;
22270;SDS011;11304;53.520;10.104;2024-03-02T04:53:13;44.72;;;28.38;;
22270;SDS011;11304;53.520;10.104;2024-03-02T04:55:39;40.17;;;25.92;;
22270;SDS011;11304;53.520;10.104;2024-03-02T04:58:05;42.17;;;26.63;;
22270;SDS011;11304;53.520;10.104;2024-03-02T05:00:31;38.70;;;27.08;;
22270;SDS011;11304;53.520;10.104;2024-03-02T05:02:58;43.40;;;26.65;;
22270;SDS011;11304;53.520;10.104;2024-03-02T05:05:24;42.08;;;27.88;;
22270;SDS011;11304;53.520;10.104;2024-03-02T05:07:50;39.13;;;26.50;;
22270;SDS011;11304;53.520;10.104;2024-03-02T05:10:16;39.10;;;26.20;;
22270;SDS011;11304;53.520;10.104;2024-03-02T05:12:42;41.17;;;26.67;;
22270;SDS011;11304;53.520;10.104;2024-03-02T05:15:11;40.83;;;25.95;;
22270;SDS011;11304;53.520;10.104;2024-03-02T05:17:38;40.85;;;26.23;;
22270;SDS011;11304;53.520;10.104;2024-03-02T05:20:04;44.50;;;26.50;;
22270;SDS011;11304;53.520;10.104;2024-03-02T05:22:31;40.00;;;25.38;;
22270;SDS011;11304;53.520;10.104;2024-03-02T05:24:58;39.28;;;26.02;;
22270;SDS011;11304;53.520;10.104;2024-03-02T05:27:25;42.42;;;24.88;;
22270;SDS011;11304;53.520;10.104;2024-03-02T05:29:51;44.65;;;26.10;;
22270;SDS011;11304;53.520;10.104;2024-03-02T05:32:17;41.05;;;25.50;;
22270;SDS011;11304;53.520;10.104;2024-03-02T05:34:44;42.55;;;25.75;;
22270;SDS011;11304;53.520;10.104;2024-03-02T05:37:10;38.35;;;24.85;;
22270;SDS011;11304;53.520;10.104;2024-03-02T05:39:36;39.75;;;26.05;;
22270;SDS011;11304;53.520;10.104;2024-03-02T05:42:02;40.08;;;26.48;;
22270;SDS011;11304;53.520;10.104;2024-03-02T05:44:28;40.97;;;26.20;;
22270;SDS011;11304;53.520;10.104;2024-03-02T05:46:54;38.67;;;25.80;;
22270;SDS011;11304;53.520;10.104;2024-03-02T05:49:20;44.80;;;26.70;;
22270;SDS011;11304;53.520;10.104;2024-03-02T05:51:46;39.75;;;25.70;;
22270;SDS011;11304;53.520;10.104;2024-03-02T05:54:12;38.22;;;25.65;;
22270;SDS011;11304;53.520;10.104;2024-03-02T05:56:39;42.33;;;26.10;;
22270;SDS011;11304;53.520;10.104;2024-03-02T05:59:05;43.03;;;26.23;;
22270;SDS011;11304;53.520;10.104;2024-03-02T06:01:42;39.72;;;25.38;;
22270;SDS011;11304;53.520;10.104;2024-03-02T06:04:08;41.42;;;26.10;;
22270;SDS011;11304;53.520;10.104;2024-03-02T06:06:36;38.08;;;24.23;;
22270;SDS011;11304;53.520;10.104;2024-03-02T06:09:02;41.97;;;25.60;;
22270;SDS011;11304;53.520;10.104;2024-03-02T06:11:32;37.35;;;24.30;;
22270;SDS011;11304;53.520;10.104;2024-03-02T06:13:58;39.58;;;26.33;;
22270;SDS011;11304;53.520;10.104;2024-03-02T06:16:24;43.55;;;26.40;;
22270;SDS011;11304;53.520;10.104;2024-03-02T06:18:50;43.72;;;26.90;;
22270;SDS011;11304;53.520;10.104;2024-03-02T06:21:18;43.47;;;26.30;;
22270;SDS011;11304;53.520;10.104;2024-03-02T06:23:44;38.90;;;24.98;;
22270;SDS011;11304;53.520;10.104;2024-03-02T06:26:11;44.42;;;25.90;;
22270;SDS011;11304;53.520;10.104;2024-03-02T06:28:37;40.95;;;25.55;;
22270;SDS011;11304;53.520;10.104;2024-03-02T06:31:03;41.65;;;26.35;;
22270;SDS011;11304;53.520;10.104;2024-03-02T06:33:29;40.17;;;24.98;;
22270;SDS011;11304;53.520;10.104;2024-03-02T06:35:55;41.90;;;25.92;;
22270;SDS011;11304;53.520;10.104;2024-03-02T06:38:21;41.50;;;25.75;;
22270;SDS011;11304;53.520;10.104;2024-03-02T06:40:47;37.90;;;25.25;;
22270;SDS011;11304;53.520;10.104;2024-03-02T06:43:13;39.28;;;24.85;;
22270;SDS011;11304;53.520;10.104;2024-03-02T06:45:39;40.58;;;24.77;;
22270;SDS011;11304;53.520;10.104;2024-03-02T06:48:06;40.25;;;25.08;;
22270;SDS011;11304;53.520;10.104;2024-03-02T06:50:32;41.65;;;25.23;;
22270;SDS011;11304;53.520;10.104;2024-03-02T06:52:58;40.60;;;25.08;;
22270;SDS011;11304;53.520;10.104;2024-03-02T06:55:24;40.22;;;25.25;;
22270;SDS011;11304;53.520;10.104;2024-03-02T06:57:50;35.05;;;24.63;;
22270;SDS011;11304;53.520;10.104;2024-03-02T07:00:19;44.70;;;25.30;;
22270;SDS011;11304;53.520;10.104;2024-03-02T07:02:46;43.15;;;25.50;;
22270;SDS011;11304;53.520;10.104;2024-03-02T07:05:12;39.40;;;24.85;;
22270;SDS011;11304;53.520;10.104;2024-03-02T07:07:38;43.67;;;26.15;;
22270;SDS011;11304;53.520;10.104;2024-03-02T07:10:04;36.92;;;23.88;;
22270;SDS011;11304;53.520;10.104;2024-03-02T07:12:32;39.13;;;23.98;;
22270;SDS011;11304;53.520;10.104;2024-03-02T07:14:58;39.47;;;24.77;;
22270;SDS011;11304;53.520;10.104;2024-03-02T07:17:27;39.03;;;24.50;;
22270;SDS011;11304;53.520;10.104;2024-03-02T07:19:53;39.65;;;24.95;;
22270;SDS011;11304;53.520;10.104;2024-03-02T07:22:19;42.65;;;25.63;;
22270;SDS011;11304;53.520;10.104;2024-03-02T07:24:46;38.97;;;25.67;;
22270;SDS011;11304;53.520;10.104;2024-03-02T07:27:12;43.35;;;27.55;;
22270;SDS011;11304;53.520;10.104;2024-03-02T07:29:38;40.95;;;25.67;;
22270;SDS011;11304;53.520;10.104;2024-03-02T07:32:05;43.35;;;26.73;;
22270;SDS011;11304;53.520;10.104;2024-03-02T07:34:31;37.53;;;24.83;;
22270;SDS011;11304;53.520;10.104;2024-03-02T07:36:57;39.85;;;25.08;;
22270;SDS011;11304;53.520;10.104;2024-03-02T07:39:23;39.13;;;25.00;;
22270;SDS011;11304;53.520;10.104;2024-03-02T07:41:49;40.78;;;24.80;;
22270;SDS011;11304;53.520;10.104;2024-03-02T07:44:15;41.00;;;25.60;;
22270;SDS011;11304;53.520;10.104;2024-03-02T07:46:44;38.80;;;25.30;;
22270;SDS011;11304;53.520;10.104;2024-03-02T07:49:11;37.10;;;25.23;;
22270;SDS011;11304;53.520;10.104;2024-03-02T07:51:39;37.15;;;24.58;;
22270;SDS011;11304;53.520;10.104;2024-03-02T07:54:05;38.33;;;24.75;;
22270;SDS011;11304;53.520;10.104;2024-03-02T07:56:31;38.13;;;25.42;;
22270;SDS011;11304;53.520;10.104;2024-03-02T07:58:57;38.17;;;25.02;;
22270;SDS011;11304;53.520;10.104;2024-03-02T08:01:29;40.10;;;24.92;;
22270;SDS011;11304;53.520;10.104;2024-03-02T08:03:56;39.20;;;25.70;;
22270;SDS011;11304;53.520;10.104;2024-03-02T08:06:24;44.42;;;27.10;;
22270;SDS011;11304;53.520;10.104;2024-03-02T08:08:52;36.88;;;24.67;;
22270;SDS011;11304;53.520;10.104;2024-03-02T08:11:19;38.75;;;25.92;;
22270;SDS011;11304;53.520;10.104;2024-03-02T08:13:45;44.13;;;25.83;;
22270;SDS011;11304;53.520;10.104;2024-03-02T08:16:11;39.60;;;26.00;;
22270;SDS011;11304;53.520;10.104;2024-03-02T08:18:37;43.47;;;27.30;;
22270;SDS011;11304;53.520;10.104;2024-03-02T08:21:03;37.72;;;25.25;;
22270;SDS011;11304;53.520;10.104;2024-03-02T08:23:29;39.25;;;25.52;;
22270;SDS011;11304;53.520;10.104;2024-03-02T08:25:57;39.00;;;24.92;;
22270;SDS011;11304;53.520;10.104;2024-03-02T08:28:23;37.17;;;24.92;;
22270;SDS011;11304;53.520;10.104;2024-03-02T08:30:49;34.58;;;23.80;;
22270;SDS011;11304;53.520;10.104;2024-03-02T08:33:15;38.75;;;24.98;;
22270;SDS011;11304;53.520;10.104;2024-03-02T08:35:41;35.30;;;24.73;;
22270;SDS011;11304;53.520;10.104;2024-03-02T08:38:07;37.67;;;23.75;;
22270;SDS011;11304;53.520;10.104;2024-03-02T08:40:33;32.88;;;23.10;;
22270;SDS011;11304;53.520;10.104;2024-03-02T08:42:59;35.05;;;23.48;;
22270;SDS011;11304;53.520;10.104;2024-03-02T08:45:25;36.75;;;23.58;;
22270;SDS011;11304;53.520;10.104;2024-03-02T08:47:51;36.83;;;24.73;;
22270;SDS011;11304;53.520;10.104;2024-03-02T08:50:18;35.13;;;23.30;;
22270;SDS011;11304;53.520;10.104;2024-03-02T08:52:44;35.80;;;23.98;;
22270;SDS011;11304;53.520;10.104;2024-03-02T08:55:10;34.15;;;24.45;;
22270;SDS011;11304;53.520;10.104;2024-03-02T08:57:36;36.45;;;24.67;;
22270;SDS011;11304;53.520;10.104;2024-03-02T09:00:02;34.05;;;23.58;;
22270;SDS011;11304;53.520;10.104;2024-03-02T09:02:30;35.53;;;23.10;;
22270;SDS011;11304;53.520;10.104;2024-03-02T09:04:56;34.47;;;22.88;;
22270;SDS011;11304;53.520;10.104;2024-03-02T09:07:23;34.70;;;22.65;;
22270;SDS011;11304;53.520;10.104;2024-03-02T09:09:49;33.70;;;23.52;;
22270;SDS011;11304;53.520;10.104;2024-03-02T09:12:15;35.95;;;22.88;;
22270;SDS011;11304;53.520;10.104;2024-03-02T09:14:41;32.63;;;22.83;;
22270;SDS011;11304;53.520;10.104;2024-03-02T09:17:07;38.30;;;24.45;;
22270;SDS011;11304;53.520;10.104;2024-03-02T09:19:35;36.63;;;22.95;;
22270;SDS011;11304;53.520;10.104;2024-03-02T09:22:01;36.22;;;23.15;;
22270;SDS011;11304;53.520;10.104;2024-03-02T09:24:30;30.75;;;21.40;;
22270;SDS011;11304;53.520;10.104;2024-03-02T09:26:56;30.83;;;20.98;;
22270;SDS011;11304;53.520;10.104;2024-03-02T09:29:22;35.33;;;20.63;;
22270;SDS011;11304;53.520;10.104;2024-03-02T09:31:48;32.72;;;21.52;;
22270;SDS011;11304;53.520;10.104;2024-03-02T09:34:15;28.55;;;20.10;;
22270;SDS011;11304;53.520;10.104;2024-03-02T09:36:42;28.23;;;18.52;;
22270;SDS011;11304;53.520;10.104;2024-03-02T09:39:08;32.15;;;20.95;;
22270;SDS011;11304;53.520;10.104;2024-03-02T09:41:37;29.15;;;20.15;;
22270;SDS011;11304;53.520;10.104;2024-03-02T09:44:03;32.53;;;19.48;;
22270;SDS011;11304;53.520;10.104;2024-03-02T09:46:30;28.83;;;20.63;;
22270;SDS011;11304;53.520;10.104;2024-03-02T09:48:56;27.20;;;19.13;;
22270;SDS011;11304;53.520;10.104;2024-03-02T09:51:22;27.73;;;19.15;;
22270;SDS011;11304;53.520;10.104;2024-03-02T09:53:49;26.30;;;18.60;;
22270;SDS011;11304;53.520;10.104;2024-03-02T09:56:15;24.73;;;17.85;;
22270;SDS011;11304;53.520;10.104;2024-03-02T09:58:43;24.98;;;17.55;;
22270;SDS011;11304;53.520;10.104;2024-03-02T10:01:09;25.20;;;17.35;;
22270;SDS011;11304;53.520;10.104;2024-03-02T10:03:38;23.33;;;17.75;;
22270;SDS011;11304;53.520;10.104;2024-03-02T10:08:46;25.20;;;17.08;;
22270;SDS011;11304;53.520;10.104;2024-03-02T10:11:26;22.83;;;16.92;;
22270;SDS011;11304;53.520;10.104;2024-03-02T10:14:12;24.63;;;17.52;;
22270;SDS011;11304;53.520;10.104;2024-03-02T10:16:41;23.75;;;16.95;;
22270;SDS011;11304;53.520;10.104;2024-03-02T10:21:43;22.25;;;15.88;;
22270;SDS011;11304;53.520;10.104;2024-03-02T10:24:09;20.40;;;14.77;;
22270;SDS011;11304;53.520;10.104;2024-03-02T10:26:35;22.83;;;15.80;;
22270;SDS011;11304;53.520;10.104;2024-03-02T10:29:02;19.70;;;14.93;;
22270;SDS011;11304;53.520;10.104;2024-03-02T10:31:28;19.83;;;14.65;;
22270;SDS011;11304;53.520;10.104;2024-03-02T10:33:54;21.27;;;15.43;;
22270;SDS011;11304;53.520;10.104;2024-03-02T10:36:20;21.40;;;14.63;;
22270;SDS011;11304;53.520;10.104;2024-03-02T10:38:47;17.90;;;13.45;;
22270;SDS011;11304;53.520;10.104;2024-03-02T10:41:19;16.30;;;12.68;;
22270;SDS011;11304;53.520;10.104;2024-03-02T10:43:48;15.73;;;10.40;;
22270;SDS011;11304;53.520;10.104;2024-03-02T10:46:14;14.63;;;11.20;;
22270;SDS011;11304;53.520;10.104;2024-03-02T10:48:40;14.30;;;10.50;;
22270;SDS011;11304;53.520;10.104;2024-03-02T10:51:08;13.63;;;10.07;;
22270;SDS011;11304;53.520;10.104;2024-03-02T10:53:34;15.65;;;10.13;;
22270;SDS011;11304;53.520;10.104;2024-03-02T10:56:00;15.20;;;10.35;;
22270;SDS011;11304;53.520;10.104;2024-03-02T10:58:28;13.13;;;9.07;;
22270;SDS011;11304;53.520;10.104;2024-03-02T11:00:57;12.98;;;9.30;;
22270;SDS011;11304;53.520;10.104;2024-03-02T11:05:52;14.82;;;8.98;;
22270;SDS011;11304;53.520;10.104;2024-03-02T11:08:19;12.43;;;8.10;;
22270;SDS011;11304;53.520;10.104;2024-03-02T11:13:16;11.02;;;8.77;;
22270;SDS011;11304;53.520;10.104;2024-03-02T11:15:46;11.32;;;8.60;;
22270;SDS011;11304;53.520;10.104;2024-03-02T11:18:12;11.70;;;8.10;;
22270;SDS011;11304;53.520;10.104;2024-03-02T11:20:39;12.18;;;8.15;;
22270;SDS011;11304;53.520;10.104;2024-03-02T11:23:06;12.23;;;7.60;;
22270;SDS011;11304;53.520;10.104;2024-03-02T11:25:33;11.13;;;7.82;;
22270;SDS011;11304;53.520;10.104;2024-03-02T11:27:59;11.48;;;8.10;;
22270;SDS011;11304;53.520;10.104;2024-03-02T11:32:57;13.70;;;7.97;;
22270;SDS011;11304;53.520;10.104;2024-03-02T11:35:24;11.77;;;8.32;;
22270;SDS011;11304;53.520;10.104;2024-03-02T11:37:51;15.27;;;9.23;;
22270;SDS011;11304;53.520;10.104;2024-03-02T11:40:23;11.38;;;8.18;;
22270;SDS011;11304;53.520;10.104;2024-03-02T11:42:50;11.73;;;8.60;;
22270;SDS011;11304;53.520;10.104;2024-03-02T11:45:16;11.48;;;8.43;;
22270;SDS011;11304;53.520;10.104;2024-03-02T11:47:55;13.27;;;9.27;;
22270;SDS011;11304;53.520;10.104;2024-03-02T11:53:03;12.52;;;8.48;;
22270;SDS011;11304;53.520;10.104;2024-03-02T11:55:36;11.70;;;8.50;;
22270;SDS011;11304;53.520;10.104;2024-03-02T11:58:05;12.57;;;8.35;;
22270;SDS011;11304;53.520;10.104;2024-03-02T12:00:31;13.05;;;9.55;;
22270;SDS011;11304;53.520;10.104;2024-03-02T12:05:27;12.73;;;9.18;;
22270;SDS011;11304;53.520;10.104;2024-03-02T12:08:00;11.45;;;8.52;;
22270;SDS011;11304;53.520;10.104;2024-03-02T12:10:27;11.27;;;8.02;;
22270;SDS011;11304;53.520;10.104;2024-03-02T12:12:57;12.85;;;7.97;;
22270;SDS011;11304;53.520;10.104;2024-03-02T12:15:25;14.20;;;9.27;;
22270;SDS011;11304;53.520;10.104;2024-03-02T12:20:17;14.93;;;9.57;;
22270;SDS011;11304;53.520;10.104;2024-03-02T12:22:43;12.68;;;9.32;;
22270;SDS011;11304;53.520;10.104;2024-03-02T12:25:11;11.90;;;8.57;;
22270;SDS011;11304;53.520;10.104;2024-03-02T12:27:38;13.43;;;9.25;;
22270;SDS011;11304;53.520;10.104;2024-03-02T12:30:05;13.07;;;8.57;;
22270;SDS011;11304;53.520;10.104;2024-03-02T12:32:34;11.60;;;8.57;;
22270;SDS011;11304;53.520;10.104;2024-03-02T12:35:00;14.90;;;10.52;;
22270;SDS011;11304;53.520;10.104;2024-03-02T12:37:26;13.60;;;10.05;;
22270;SDS011;11304;53.520;10.104;2024-03-02T12:39:53;16.95;;;11.05;;
22270;SDS011;11304;53.520;10.104;2024-03-02T12:42:19;15.73;;;11.18;;
22270;SDS011;11304;53.520;10.104;2024-03-02T12:44:45;15.05;;;11.48;;
22270;SDS011;11304;53.520;10.104;2024-03-02T12:47:11;16.75;;;10.73;;
22270;SDS011;11304;53.520;10.104;2024-03-02T12:49:39;16.15;;;11.05;;
22270;SDS011;11304;53.520;10.104;2024-03-02T12:52:06;16.45;;;11.40;;
22270;SDS011;11304;53.520;10.104;2024-03-02T12:54:32;14.25;;;10.30;;
22270;SDS011;11304;53.520;10.104;2024-03-02T12:56:59;17.27;;;12.10;;
22270;SDS011;11304;53.520;10.104;2024-03-02T12:59:25;16.88;;;11.93;;
22270;SDS011;11304;53.520;10.104;2024-03-02T13:04:25;16.30;;;11.40;;
22270;SDS011;11304;53.520;10.104;2024-03-02T13:06:51;15.70;;;10.95;;
22270;SDS011;11304;53.520;10.104;2024-03-02T13:09:18;15.48;;;11.23;;
22270;SDS011;11304;53.520;10.104;2024-03-02T13:11:44;16.83;;;10.68;;
22270;SDS011;11304;53.520;10.104;2024-03-02T13:14:10;16.00;;;10.38;;
22270;SDS011;11304;53.520;10.104;2024-03-02T13:16:40;16.40;;;11.88;;
22270;SDS011;11304;53.520;10.104;2024-03-02T13:19:09;16.13;;;11.20;;
22270;SDS011;11304;53.520;10.104;2024-03-02T13:21:37;15.77;;;11.07;;
22270;SDS011;11304;53.520;10.104;2024-03-02T13:24:03;15.27;;;10.85;;
22270;SDS011;11304;53.520;10.104;2024-03-02T13:26:29;15.13;;;10.57;;
22270;SDS011;11304;53.520;10.104;2024-03-02T13:28:55;15.15;;;11.00;;
22270;SDS011;11304;53.520;10.104;2024-03-02T13:31:21;16.35;;;11.60;;
22270;SDS011;11304;53.520;10.104;2024-03-02T13:33:48;15.85;;;11.05;;
22270;SDS011;11304;53.520;10.104;2024-03-02T13:36:14;16.90;;;12.18;;
22270;SDS011;11304;53.520;10.104;2024-03-02T13:38:40;15.68;;;11.50;;
22270;SDS011;11304;53.520;10.104;2024-03-02T13:41:06;15.20;;;11.52;;
22270;SDS011;11304;53.520;10.104;2024-03-02T13:43:32;16.17;;;11.73;;
22270;SDS011;11304;53.520;10.104;2024-03-02T13:45:59;16.77;;;11.45;;
22270;SDS011;11304;53.520;10.104;2024-03-02T13:48:25;17.92;;;11.18;;
22270;SDS011;11304;53.520;10.104;2024-03-02T13:50:52;15.43;;;10.68;;
22270;SDS011;11304;53.520;10.104;2024-03-02T13:53:18;15.35;;;11.35;;
22270;SDS011;11304;53.520;10.104;2024-03-02T13:55:44;16.60;;;11.40;;
22270;SDS011;11304;53.520;10.104;2024-03-02T13:58:10;19.10;;;10.93;;
22270;SDS011;11304;53.520;10.104;2024-03-02T14:00:37;16.63;;;12.05;;
22270;SDS011;11304;53.520;10.104;2024-03-02T14:03:04;17.45;;;11.48;;
22270;SDS011;11304;53.520;10.104;2024-03-02T14:05:30;17.00;;;11.43;;
22270;SDS011;11304;53.520;10.104;2024-03-02T14:07:56;16.27;;;11.27;;
22270;SDS011;11304;53.520;10.104;2024-03-02T14:10:22;18.15;;;11.40;;
22270;SDS011;11304;53.520;10.104;2024-03-02T14:12:48;15.57;;;10.82;;
22270;SDS011;11304;53.520;10.104;2024-03-02T14:15:14;15.15;;;10.15;;
22270;SDS011;11304;53.520;10.104;2024-03-02T14:17:40;14.05;;;10.60;;
22270;SDS011;11304;53.520;10.104;2024-03-02T14:20:07;14.95;;;10.57;;
22270;SDS011;11304;53.520;10.104;2024-03-02T14:25:02;14.93;;;10.07;;
22270;SDS011;11304;53.520;10.104;2024-03-02T14:27:28;13.23;;;9.23;;
22270;SDS011;11304;53.520;10.104;2024-03-02T14:29:55;14.38;;;9.88;;
22270;SDS011;11304;53.520;10.104;2024-03-02T14:32:21;11.98;;;8.68;;
22270;SDS011;11304;53.520;10.104;2024-03-02T14:34:47;14.02;;;8.65;;
22270;SDS011;11304;53.520;10.104;2024-03-02T14:37:14;12.88;;;9.02;;